createdAt,value
2022-11-30T00:00:31.444Z,60.80
2022-11-30T00:03:19.109Z,56.40
2022-11-30T00:05:49.500Z,56.00
2022-11-30T00:08:19.114Z,58.70
2022-11-30T00:10:48.476Z,57.60
2022-11-30T00:13:20.168Z,57.60
2022-11-30T00:15:51.393Z,58.60
2022-11-30T00:18:20.696Z,57.80
2022-11-30T00:20:49.968Z,58.40
2022-11-30T00:23:18.975Z,58.40
2022-11-30T00:25:51.980Z,55.50
2022-11-30T00:28:26.207Z,58.10
2022-11-30T00:31:08.160Z,52.60
2022-11-30T00:33:40.901Z,52.20
2022-11-30T00:36:22.122Z,52.30
2022-11-30T00:39:08.016Z,51.70
2022-11-30T00:41:53.086Z,52.50
2022-11-30T00:44:42.558Z,51.90
2022-11-30T00:47:19.663Z,55.10
2022-11-30T00:49:55.068Z,54.70
2022-11-30T00:52:31.700Z,57.20
2022-11-30T00:55:14.070Z,56.50
2022-11-30T00:57:54.971Z,55.70
2022-11-30T01:00:28.318Z,54.40
2022-11-30T01:03:30.639Z,51.90
2022-11-30T01:06:15.986Z,53.90
2022-11-30T01:08:52.113Z,52.30
2022-11-30T01:11:29.338Z,52.80
2022-11-30T01:14:05.098Z,53.10
2022-11-30T01:16:45.108Z,51.00
2022-11-30T01:19:18.445Z,52.90
2022-11-30T01:21:52.508Z,55.70
2022-11-30T01:24:22.666Z,51.90
2022-11-30T01:26:53.939Z,56.90
2022-11-30T01:29:26.089Z,57.60
2022-11-30T01:31:57.215Z,56.90
2022-11-30T01:34:33.008Z,56.10
2022-11-30T01:37:04.966Z,59.60
2022-11-30T01:39:44.883Z,55.60
2022-11-30T01:42:39.160Z,52.50
2022-11-30T01:45:13.087Z,52.70
2022-11-30T01:47:52.199Z,51.10
2022-11-30T01:50:35.918Z,54.00
2022-11-30T01:53:37.272Z,54.30
2022-11-30T01:56:21.884Z,53.20
2022-11-30T01:59:02.823Z,53.50
2022-11-30T02:02:35.273Z,54.20
2022-11-30T02:04:44.063Z,53.80
2022-11-30T02:07:22.205Z,54.80
2022-11-30T02:09:54.013Z,54.40
2022-11-30T02:13:01.252Z,55.20
2022-11-30T02:15:44.581Z,55.60
2022-11-30T02:18:30.571Z,54.80
2022-11-30T02:21:12.063Z,55.40
2022-11-30T02:24:21.800Z,60.50
2022-11-30T02:27:20.695Z,57.30
2022-11-30T02:30:17.596Z,58.70
2022-11-30T02:33:07.801Z,57.20
2022-11-30T02:36:00.358Z,58.20
2022-11-30T02:38:37.054Z,55.50
2022-11-30T02:41:11.274Z,54.40
2022-11-30T02:44:14.157Z,56.70
2022-11-30T02:47:19.402Z,58.00
2022-11-30T02:50:11.058Z,52.80
2022-11-30T02:52:48.477Z,56.60
2022-11-30T02:55:39.455Z,55.70
2022-11-30T02:58:17.344Z,58.20
2022-11-30T03:00:50.356Z,58.60
2022-11-30T03:03:21.382Z,55.20
2022-11-30T03:05:57.553Z,54.40
2022-11-30T03:08:46.395Z,55.90
2022-11-30T03:11:36.707Z,56.60
2022-11-30T03:14:14.498Z,56.30
2022-11-30T03:16:47.675Z,56.90
2022-11-30T03:22:15.379Z,54.10
2022-11-30T03:24:47.895Z,57.20
2022-11-30T03:27:53.355Z,56.30
2022-11-30T03:30:34.909Z,57.50
2022-11-30T03:33:24.045Z,54.20
2022-11-30T03:36:11.994Z,57.00
2022-11-30T03:38:48.453Z,55.60
2022-11-30T03:41:21.836Z,56.10
2022-11-30T03:43:51.349Z,57.00
2022-11-30T03:46:34.791Z,53.90
2022-11-30T03:49:17.462Z,52.80
2022-11-30T03:51:54.935Z,51.40
2022-11-30T03:54:42.320Z,53.30
2022-11-30T03:57:31.751Z,53.60
2022-11-30T04:00:21.763Z,53.30
2022-11-30T04:02:57.592Z,50.80
2022-11-30T04:05:31.399Z,53.90
2022-11-30T04:08:10.519Z,55.20
2022-11-30T04:10:42.428Z,53.40
2022-11-30T04:13:12.171Z,53.20
2022-11-30T04:16:00.766Z,54.80
2022-11-30T04:18:45.070Z,53.90
2022-11-30T04:21:35.956Z,56.90
2022-11-30T04:24:32.563Z,67.00
2022-11-30T04:27:06.406Z,58.40
2022-11-30T04:29:36.797Z,60.20
2022-11-30T04:32:14.916Z,58.80
2022-11-30T04:35:01.884Z,55.40
2022-11-30T04:37:36.050Z,54.70
2022-11-30T04:40:13.570Z,58.70
2022-11-30T04:42:53.766Z,58.00
2022-11-30T04:45:35.570Z,55.60
2022-11-30T04:48:19.955Z,54.90
2022-11-30T04:51:04.970Z,114.10
2022-11-30T04:53:42.393Z,129.20
2022-11-30T04:56:15.565Z,134.20
2022-11-30T04:58:48.958Z,80.60
2022-11-30T05:01:55.875Z,71.40
2022-11-30T05:04:35.035Z,59.50
2022-11-30T05:07:08.867Z,58.50
2022-11-30T05:09:41.126Z,52.70
2022-11-30T05:12:15.304Z,57.20
2022-11-30T05:14:50.519Z,60.30
2022-11-30T05:17:26.286Z,56.80
2022-11-30T05:19:55.650Z,57.40
2022-11-30T05:22:30.142Z,71.40
2022-11-30T05:25:09.568Z,56.90
2022-11-30T05:27:45.248Z,59.70
2022-11-30T05:30:17.699Z,53.20
2022-11-30T05:33:00.200Z,52.70
2022-11-30T05:35:55.552Z,68.30
2022-11-30T05:38:27.585Z,60.90
2022-11-30T05:41:05.641Z,73.20
2022-11-30T05:43:42.026Z,62.00
2022-11-30T05:46:28.621Z,63.50
2022-11-30T05:49:19.227Z,54.70
2022-11-30T05:56:50.183Z,54.90
2022-11-30T06:04:08.818Z,51.70
2022-11-30T06:07:05.755Z,64.80
2022-11-30T06:09:47.552Z,69.30
2022-11-30T06:12:17.031Z,84.50
2022-11-30T06:14:56.343Z,120.00
2022-11-30T06:17:37.882Z,62.10
2022-11-30T06:20:08.487Z,55.80
2022-11-30T06:30:44.524Z,54.90
2022-11-30T06:33:16.141Z,57.40
2022-11-30T06:35:47.170Z,54.20
2022-11-30T06:40:50.954Z,48.10
2022-11-30T06:43:20.583Z,54.00
2022-11-30T06:45:53.139Z,53.50
2022-11-30T06:48:31.870Z,59.70
2022-11-30T06:51:02.270Z,60.20
2022-11-30T06:53:33.628Z,74.80
2022-11-30T06:56:11.635Z,68.10
2022-11-30T06:58:48.878Z,84.90
2022-11-30T07:01:29.552Z,73.00
2022-11-30T07:04:31.647Z,55.40
2022-11-30T07:07:46.464Z,58.70
2022-11-30T07:10:24.010Z,59.60
2022-11-30T07:13:04.480Z,59.40
2022-11-30T07:15:43.703Z,57.10
2022-11-30T07:18:13.240Z,67.50
2022-11-30T07:20:42.769Z,64.80
2022-11-30T07:23:36.414Z,61.50
2022-11-30T07:26:07.629Z,82.30
2022-11-30T07:28:46.239Z,77.20
2022-11-30T07:31:25.855Z,60.30
2022-11-30T07:34:00.318Z,53.00
2022-11-30T07:36:47.531Z,48.50
2022-11-30T07:39:24.954Z,56.40
2022-11-30T07:41:56.707Z,66.30
2022-11-30T07:44:48.524Z,60.00
2022-11-30T07:47:24.081Z,54.70
2022-11-30T07:49:54.411Z,64.80
2022-11-30T07:52:26.668Z,58.90
2022-11-30T07:55:06.520Z,54.70
2022-11-30T07:57:41.580Z,61.30
2022-11-30T08:00:21.286Z,62.20
2022-11-30T08:02:56.816Z,61.80
2022-11-30T08:05:27.645Z,59.60
2022-11-30T08:08:05.974Z,60.90
2022-11-30T08:10:46.921Z,69.50
2022-11-30T08:13:16.119Z,58.60
2022-11-30T08:15:47.607Z,59.90
2022-11-30T08:18:16.935Z,58.80
2022-11-30T08:20:49.985Z,59.30
2022-11-30T08:23:27.024Z,67.40
2022-11-30T08:26:19.962Z,71.10
2022-11-30T08:29:01.203Z,54.60
2022-11-30T08:34:38.759Z,50.20
2022-11-30T08:37:20.808Z,67.50
2022-11-30T08:39:56.300Z,72.50
2022-11-30T08:42:32.668Z,74.70
2022-11-30T08:45:30.984Z,64.80
2022-11-30T08:48:09.727Z,58.70
2022-11-30T08:50:49.861Z,61.70
2022-11-30T08:53:30.910Z,58.20
2022-11-30T08:56:23.313Z,57.00
2022-11-30T08:59:02.704Z,53.20
2022-11-30T09:01:40.573Z,58.50
2022-11-30T09:04:35.508Z,60.10
2022-11-30T09:07:14.777Z,54.00
2022-11-30T09:10:19.954Z,50.90
2022-11-30T09:13:04.528Z,53.90
2022-11-30T09:15:35.991Z,52.30
2022-11-30T09:18:12.675Z,56.80
2022-11-30T09:20:50.998Z,59.20
2022-11-30T09:23:23.611Z,64.60
2022-11-30T09:26:01.964Z,64.70
2022-11-30T09:28:31.013Z,59.50
2022-11-30T09:31:11.398Z,60.50
2022-11-30T09:33:44.654Z,62.10
2022-11-30T09:36:18.427Z,62.40
2022-11-30T09:38:49.959Z,62.30
2022-11-30T09:42:10.099Z,68.70
2022-11-30T09:45:28.779Z,64.30
2022-11-30T09:48:09.816Z,68.50
2022-11-30T09:50:48.605Z,66.30
2022-11-30T09:53:56.401Z,66.50
2022-11-30T09:56:44.256Z,63.80
2022-11-30T09:59:35.879Z,57.50
2022-11-30T10:02:20.437Z,60.80
2022-11-30T10:04:51.971Z,62.20
2022-11-30T10:07:56.043Z,62.80
2022-11-30T10:16:29.280Z,58.20
2022-11-30T10:19:25.440Z,49.30
2022-11-30T10:22:14.040Z,54.50
2022-11-30T10:25:15.267Z,54.60
2022-11-30T10:28:12.442Z,56.20
2022-11-30T10:30:49.841Z,62.90
2022-11-30T10:33:26.867Z,55.30
2022-11-30T10:36:25.253Z,57.00
2022-11-30T10:39:00.503Z,58.10
2022-11-30T10:41:50.840Z,62.50
2022-11-30T10:44:34.254Z,65.30
2022-11-30T10:47:20.609Z,72.20
2022-11-30T10:49:52.760Z,63.90
2022-11-30T10:52:34.797Z,55.70
2022-11-30T10:55:18.210Z,58.40
2022-11-30T11:12:55.427Z,62.60
2022-11-30T11:15:33.910Z,61.40
2022-11-30T11:18:26.159Z,59.00
2022-11-30T11:21:07.052Z,65.60
2022-11-30T11:23:39.296Z,66.30
2022-11-30T11:26:18.205Z,66.90
2022-11-30T11:28:51.918Z,61.00
2022-11-30T11:31:46.291Z,56.40
2022-11-30T11:34:37.623Z,57.10
2022-11-30T11:37:26.410Z,55.10
2022-11-30T11:39:57.569Z,54.70
2022-11-30T11:42:35.167Z,58.90
2022-11-30T11:45:06.145Z,62.60
2022-11-30T11:47:45.124Z,63.10
2022-11-30T11:51:05.148Z,64.60
2022-11-30T11:53:43.254Z,65.80
2022-11-30T11:56:26.451Z,65.00
2022-11-30T11:59:14.941Z,61.60
2022-11-30T12:02:18.815Z,57.60
2022-11-30T12:04:58.174Z,58.30
2022-11-30T12:08:03.734Z,59.70
2022-11-30T12:11:05.748Z,55.80
2022-11-30T12:13:41.078Z,59.10
2022-11-30T12:16:15.846Z,59.00
2022-11-30T12:18:52.136Z,56.80
2022-11-30T12:22:04.894Z,57.80
2022-11-30T12:25:10.629Z,61.10
2022-11-30T12:28:13.634Z,58.90
2022-11-30T12:31:18.093Z,55.00
2022-11-30T12:34:14.931Z,56.10
2022-11-30T12:37:10.659Z,51.80
2022-11-30T12:40:13.209Z,47.20
2022-11-30T12:42:52.253Z,49.50
2022-11-30T12:45:35.279Z,50.80
2022-11-30T12:49:10.273Z,52.80
2022-11-30T12:52:09.293Z,53.90
2022-11-30T12:55:19.161Z,54.60
2022-11-30T12:58:26.221Z,54.10
2022-11-30T13:01:25.502Z,56.90
2022-11-30T13:04:33.314Z,61.20
2022-11-30T13:07:20.277Z,54.40
2022-11-30T13:10:06.371Z,57.10
2022-11-30T13:12:38.837Z,52.30
2022-11-30T13:18:02.674Z,48.30
2022-11-30T13:20:46.396Z,51.40
2022-11-30T13:23:37.716Z,51.90
2022-11-30T13:26:50.478Z,49.20
2022-11-30T13:29:44.841Z,54.30
2022-11-30T13:35:37.966Z,51.00
2022-11-30T13:38:36.199Z,55.10
2022-11-30T13:41:09.197Z,53.70
2022-11-30T13:43:47.798Z,50.10
2022-11-30T13:46:23.988Z,68.00
2022-11-30T13:49:28.953Z,74.20
2022-11-30T13:52:21.712Z,63.70
2022-11-30T13:54:57.330Z,50.80
2022-11-30T13:57:29.191Z,51.40
2022-11-30T14:00:22.818Z,56.70
2022-11-30T14:02:54.541Z,49.50
2022-11-30T14:05:44.908Z,47.30
2022-11-30T14:08:22.705Z,53.10
2022-11-30T14:11:11.977Z,53.10
2022-11-30T14:13:42.133Z,50.90
2022-11-30T14:16:27.772Z,47.40
2022-11-30T14:18:57.483Z,50.10
2022-11-30T14:21:34.623Z,51.20
2022-11-30T14:24:23.594Z,49.50
2022-11-30T14:26:52.932Z,44.90
2022-11-30T14:29:28.170Z,44.50
2022-11-30T14:32:17.189Z,45.00
2022-11-30T14:34:52.614Z,46.10
2022-11-30T14:37:31.930Z,49.50
2022-11-30T14:40:11.042Z,51.00
2022-11-30T14:42:52.506Z,51.60
2022-11-30T14:45:34.345Z,58.40
2022-11-30T14:48:18.407Z,55.90
2022-11-30T14:51:12.614Z,51.40
2022-11-30T14:54:11.047Z,53.30
2022-11-30T14:56:49.963Z,57.00
2022-11-30T14:59:53.352Z,55.80
2022-11-30T15:02:40.081Z,56.20
2022-11-30T15:05:21.083Z,48.90
2022-11-30T15:07:53.232Z,48.40
2022-11-30T15:10:41.673Z,49.70
2022-11-30T15:13:22.080Z,48.90
2022-11-30T15:15:56.138Z,50.20
2022-11-30T15:18:30.423Z,43.70
2022-11-30T15:23:38.628Z,44.40
2022-11-30T15:26:46.632Z,46.90
2022-11-30T15:29:32.104Z,49.20
2022-11-30T15:32:18.508Z,49.90
2022-11-30T15:34:57.492Z,49.20
2022-11-30T15:37:39.017Z,51.80
2022-11-30T15:40:33.003Z,50.00
2022-11-30T15:43:05.197Z,52.70
2022-11-30T15:45:51.634Z,56.50
2022-11-30T15:48:33.573Z,59.00
2022-11-30T15:51:05.939Z,57.90
2022-11-30T15:53:56.279Z,56.20
2022-11-30T15:56:30.181Z,60.60
2022-11-30T15:59:11.974Z,61.70
2022-11-30T16:02:09.489Z,64.00
2022-11-30T16:04:57.386Z,60.40
2022-11-30T16:07:33.572Z,57.40
2022-11-30T16:10:16.207Z,56.60
2022-11-30T16:13:02.103Z,59.20
2022-11-30T16:15:42.719Z,55.60
2022-11-30T16:18:26.517Z,56.50
2022-11-30T16:21:01.022Z,58.70
2022-11-30T16:23:38.045Z,61.80
2022-11-30T16:26:23.074Z,61.00
2022-11-30T16:29:05.079Z,60.60
2022-11-30T16:31:50.700Z,65.90
2022-11-30T16:34:23.644Z,61.30
2022-11-30T16:36:55.008Z,55.50
2022-11-30T16:39:29.390Z,55.80
2022-11-30T16:42:02.438Z,56.40
2022-11-30T16:44:33.056Z,53.80
2022-11-30T16:47:02.452Z,51.90
2022-11-30T16:49:34.417Z,50.50
2022-11-30T16:52:03.986Z,50.80
2022-11-30T16:54:33.449Z,51.90
2022-11-30T16:57:16.245Z,47.90
2022-11-30T16:59:47.373Z,49.40
2022-11-30T17:02:33.017Z,51.50
2022-11-30T17:05:15.171Z,52.70
2022-11-30T17:07:44.516Z,52.30
2022-11-30T17:10:13.895Z,51.30
2022-11-30T17:12:43.102Z,50.20
2022-11-30T17:15:21.305Z,44.00
2022-11-30T17:17:50.380Z,43.10
2022-11-30T17:20:19.463Z,38.90
2022-11-30T17:22:48.722Z,43.10
2022-11-30T17:25:22.135Z,49.30
2022-11-30T17:27:53.158Z,46.50
2022-11-30T17:30:28.084Z,52.10
2022-11-30T17:32:58.772Z,47.30
2022-11-30T17:35:31.295Z,47.00
2022-11-30T17:38:04.874Z,45.50
2022-11-30T17:40:35.582Z,46.20
2022-11-30T17:43:07.339Z,47.30
2022-11-30T17:45:40.887Z,45.60
2022-11-30T17:50:43.799Z,45.10
2022-11-30T17:53:18.481Z,45.80
2022-11-30T17:56:05.708Z,48.90
2022-11-30T17:58:49.407Z,50.50
2022-11-30T18:01:27.920Z,50.10
2022-11-30T18:03:59.202Z,49.70
2022-11-30T18:06:30.101Z,49.10
2022-11-30T18:09:11.141Z,52.10
2022-11-30T18:11:50.964Z,53.00
2022-11-30T18:14:25.363Z,54.80
2022-11-30T18:16:56.406Z,48.80
2022-11-30T18:20:01.987Z,48.90
2022-11-30T18:22:46.928Z,45.60
2022-11-30T18:25:16.487Z,48.10
2022-11-30T18:27:57.243Z,46.80
2022-11-30T18:30:26.709Z,45.80
2022-11-30T18:35:58.738Z,61.10
2022-11-30T18:38:42.362Z,40.60
2022-11-30T18:41:19.887Z,41.30
2022-11-30T18:44:05.776Z,43.00
2022-11-30T18:46:34.979Z,41.70
2022-11-30T18:49:11.449Z,46.90
2022-11-30T18:51:41.198Z,44.70
2022-11-30T18:54:14.762Z,46.50
2022-11-30T18:56:51.221Z,45.90
2022-11-30T18:59:41.901Z,49.30
2022-11-30T19:02:21.220Z,55.70
2022-11-30T19:04:54.207Z,45.30
2022-11-30T19:07:42.875Z,42.90
2022-11-30T19:10:21.536Z,43.80
2022-11-30T19:12:54.667Z,45.70
2022-11-30T19:15:30.632Z,47.50
2022-11-30T19:18:08.815Z,45.30
2022-11-30T19:20:48.541Z,50.30
2022-11-30T19:23:23.669Z,51.40
2022-11-30T19:26:16.332Z,58.50
2022-11-30T19:29:09.212Z,56.00
2022-11-30T19:31:49.128Z,55.80
2022-11-30T19:34:25.164Z,41.90
2022-11-30T19:36:59.670Z,47.80
2022-11-30T19:39:28.900Z,46.20
2022-11-30T19:42:11.095Z,47.90
2022-11-30T19:45:02.197Z,40.30
2022-11-30T19:47:38.174Z,40.70
2022-11-30T19:50:16.646Z,43.60
2022-11-30T19:52:51.798Z,47.40
2022-11-30T19:55:34.087Z,41.30
2022-11-30T19:58:03.307Z,41.10
2022-11-30T20:00:34.788Z,39.80
2022-11-30T20:03:11.585Z,44.00
2022-11-30T20:05:55.097Z,43.00
2022-11-30T20:08:34.148Z,43.10
2022-11-30T20:11:21.337Z,47.20
2022-11-30T20:14:03.568Z,48.00
2022-11-30T20:16:39.738Z,53.00
2022-11-30T20:19:19.414Z,44.60
2022-11-30T20:21:51.728Z,44.70
2022-11-30T20:24:26.863Z,47.30
2022-11-30T20:26:57.958Z,50.60
2022-11-30T20:29:42.763Z,48.30
2022-11-30T20:32:44.598Z,53.50
2022-11-30T20:35:21.759Z,49.30
2022-11-30T20:37:51.051Z,44.70
2022-11-30T20:40:28.365Z,43.90
2022-11-30T20:43:19.348Z,44.60
2022-11-30T20:45:53.527Z,41.80
2022-11-30T20:48:49.284Z,35.10
2022-11-30T20:51:49.256Z,33.30
2022-11-30T20:54:24.092Z,33.00
2022-11-30T20:56:57.508Z,36.00
2022-11-30T20:59:29.142Z,35.90
2022-11-30T21:02:23.370Z,38.40
2022-11-30T21:05:02.406Z,37.40
2022-11-30T21:10:34.053Z,40.70
2022-11-30T21:13:07.467Z,38.30
2022-11-30T21:15:39.281Z,38.80
2022-11-30T21:18:18.912Z,39.60
2022-11-30T21:20:49.500Z,35.50
2022-11-30T21:23:25.177Z,38.40
2022-11-30T21:25:58.397Z,38.80
2022-11-30T21:28:45.529Z,44.80
2022-11-30T21:31:21.386Z,37.30
2022-11-30T21:34:04.233Z,37.90
2022-11-30T21:36:37.717Z,42.30
2022-11-30T21:39:23.049Z,44.10
2022-11-30T21:42:02.157Z,47.30
2022-11-30T21:44:38.801Z,44.50
2022-11-30T21:47:14.902Z,46.00
2022-11-30T21:49:59.936Z,41.80
2022-11-30T21:52:36.558Z,43.60
2022-11-30T21:55:40.674Z,44.60
2022-11-30T21:58:30.722Z,38.70
2022-11-30T22:01:13.738Z,47.00
2022-11-30T22:04:01.432Z,45.30
2022-11-30T22:06:32.626Z,48.00
2022-11-30T22:09:14.004Z,49.50
2022-11-30T22:11:56.796Z,48.50
2022-11-30T22:14:29.873Z,45.00
2022-11-30T22:17:08.828Z,47.10
2022-11-30T22:19:42.852Z,45.20
2022-11-30T22:22:20.976Z,46.30
2022-11-30T22:24:55.874Z,43.50
2022-11-30T22:27:28.439Z,45.40
2022-11-30T22:30:00.012Z,48.30
2022-11-30T22:35:12.406Z,46.20
2022-11-30T22:40:16.153Z,49.20
2022-11-30T22:42:46.633Z,47.70
2022-11-30T22:45:17.231Z,49.80
2022-11-30T22:47:46.491Z,51.80
2022-11-30T22:50:23.434Z,48.60
2022-11-30T22:53:04.027Z,47.90
2022-11-30T22:55:33.905Z,48.30
2022-11-30T22:58:04.578Z,44.00
2022-11-30T23:00:37.353Z,46.90
2022-11-30T23:03:06.518Z,45.50
2022-11-30T23:05:38.106Z,47.00
2022-11-30T23:08:07.174Z,48.90
2022-11-30T23:10:36.457Z,44.10
2022-11-30T23:13:06.680Z,48.20
2022-11-30T23:15:39.290Z,49.10
2022-11-30T23:18:08.641Z,45.90
2022-11-30T23:20:37.576Z,47.70
2022-11-30T23:23:06.710Z,48.90
2022-11-30T23:25:35.787Z,48.70
2022-11-30T23:28:05.431Z,47.40
2022-11-30T23:30:42.478Z,46.90
2022-11-30T23:33:12.324Z,48.10
2022-11-30T23:35:45.766Z,45.50
2022-11-30T23:38:17.247Z,47.50
2022-11-30T23:40:49.232Z,47.00
2022-11-30T23:43:18.349Z,46.20
2022-11-30T23:45:49.123Z,49.30
2022-11-30T23:48:20.836Z,48.20
2022-11-30T23:50:49.997Z,47.70
2022-11-30T23:53:19.068Z,47.90
2022-11-30T23:55:50.564Z,46.20
2022-11-30T23:58:23.817Z,46.80
